createdAt,value
2019-03-18T00:00:30.041Z,98023.45
2019-03-18T00:02:56.705Z,98022.29
2019-03-18T00:05:23.268Z,98026.75
2019-03-18T00:07:49.834Z,98022.56
2019-03-18T00:10:16.407Z,98025.00
2019-03-18T00:12:42.996Z,98016.00
2019-03-18T00:15:09.561Z,98013.84
2019-03-18T00:17:36.143Z,98012.30
2019-03-18T00:20:02.708Z,98017.73
2019-03-18T00:22:29.306Z,98018.39
2019-03-18T00:24:55.875Z,98020.83
2019-03-18T00:27:22.456Z,98031.20
2019-03-18T00:29:49.022Z,98037.13
2019-03-18T00:32:15.616Z,98038.72
2019-03-18T00:34:42.222Z,98038.85
2019-03-18T00:37:08.826Z,98041.15
2019-03-18T00:39:35.391Z,98045.61
2019-03-18T00:42:02.022Z,98056.20
2019-03-18T00:44:28.589Z,98053.06
2019-03-18T00:46:55.183Z,98118.66
2019-03-18T00:49:21.754Z,98145.13
2019-03-18T00:51:48.342Z,98155.25
2019-03-18T00:54:14.912Z,98129.25
2019-03-18T00:56:41.607Z,98138.88
2019-03-18T00:59:08.329Z,98154.01
2019-03-18T01:01:34.945Z,98166.63
2019-03-18T01:04:01.522Z,98188.53
2019-03-18T01:06:28.135Z,98204.06
2019-03-18T01:08:54.713Z,98218.41
2019-03-18T01:11:21.331Z,98239.51
2019-03-18T01:13:47.905Z,98238.52
2019-03-18T01:16:14.495Z,98251.20
2019-03-18T01:18:41.077Z,98269.34
2019-03-18T01:21:07.681Z,98272.68
2019-03-18T01:23:34.265Z,98266.59
2019-03-18T01:26:00.838Z,98273.38
2019-03-18T01:28:27.400Z,98292.06
2019-03-18T01:30:53.981Z,98287.88
2019-03-18T01:33:20.545Z,98296.23
2019-03-18T01:35:47.123Z,98303.27
2019-03-18T01:38:13.698Z,98312.44
2019-03-18T01:40:40.260Z,98318.34
2019-03-18T01:43:06.846Z,98321.84
2019-03-18T01:45:40.521Z,98332.18
2019-03-18T01:48:01.715Z,98345.84
2019-03-18T01:50:28.296Z,98352.91
2019-03-18T01:52:54.877Z,98358.41
2019-03-18T01:55:21.450Z,98369.92
2019-03-18T01:57:48.020Z,98375.06
2019-03-18T02:00:14.607Z,98380.80
2019-03-18T02:02:41.317Z,98399.98
2019-03-18T02:05:07.898Z,98398.99
2019-03-18T02:07:34.636Z,98405.88
2019-03-18T02:10:01.213Z,98406.20
2019-03-18T02:12:27.824Z,98412.02
2019-03-18T02:14:54.395Z,98411.72
2019-03-18T02:17:21.022Z,98416.50
2019-03-18T02:19:47.599Z,98430.48
2019-03-18T02:22:14.214Z,98436.81
2019-03-18T02:24:40.790Z,98440.61
2019-03-18T02:27:07.409Z,98457.85
2019-03-18T02:29:33.977Z,98470.33
2019-03-18T02:32:00.597Z,98493.31
2019-03-18T02:34:27.167Z,98491.45
2019-03-18T02:36:53.762Z,98501.84
2019-03-18T02:39:20.337Z,98511.78
2019-03-18T02:44:13.398Z,98528.67
2019-03-18T02:46:40.033Z,98530.44
2019-03-18T02:49:06.689Z,98545.03
2019-03-18T02:51:33.293Z,98559.51
2019-03-18T02:53:59.861Z,98558.08
2019-03-18T02:56:26.438Z,98569.11
2019-03-18T02:58:53.013Z,98570.72
2019-03-18T03:01:19.579Z,98575.61
2019-03-18T03:03:46.145Z,98582.94
2019-03-18T03:06:12.789Z,98603.63
2019-03-18T03:08:39.423Z,98611.94
2019-03-18T03:11:06.018Z,98613.45
2019-03-18T03:13:32.581Z,98615.06
2019-03-18T03:15:59.147Z,98621.58
2019-03-18T03:18:25.729Z,98636.06
2019-03-18T03:20:52.302Z,98639.20
2019-03-18T03:23:18.876Z,98647.38
2019-03-18T03:25:45.631Z,98652.45
2019-03-18T03:28:12.207Z,98657.91
2019-03-18T03:30:38.770Z,98669.77
2019-03-18T03:33:05.367Z,98674.46
2019-03-18T03:35:31.990Z,98673.53
2019-03-18T03:37:58.565Z,98678.02
2019-03-18T03:40:25.138Z,98680.20
2019-03-18T03:42:51.895Z,98692.86
2019-03-18T03:45:18.459Z,98697.66
2019-03-18T03:47:45.032Z,98698.95
2019-03-18T03:50:11.605Z,98706.76
2019-03-18T03:52:38.270Z,98706.00
2019-03-18T03:55:04.842Z,98707.86
2019-03-18T03:57:31.463Z,98721.09
2019-03-18T03:59:58.038Z,98721.73
2019-03-18T04:02:24.635Z,98739.37
2019-03-18T04:04:51.204Z,98753.61
2019-03-18T04:07:17.796Z,98756.99
2019-03-18T04:09:44.371Z,98761.91
2019-03-18T04:12:11.066Z,98761.78
2019-03-18T04:14:37.642Z,98766.91
2019-03-18T04:17:04.240Z,98775.80
2019-03-18T04:19:30.811Z,98773.84
2019-03-18T04:21:57.396Z,98781.80
2019-03-18T04:24:23.982Z,98790.69
2019-03-18T04:26:50.620Z,98786.92
2019-03-18T04:29:17.193Z,98799.75
2019-03-18T04:31:43.772Z,98795.42
2019-03-18T04:34:10.353Z,98791.57
2019-03-18T04:36:37.031Z,98800.46
2019-03-18T04:39:03.610Z,98807.30
2019-03-18T04:41:30.179Z,98808.31
2019-03-18T04:43:56.750Z,98800.59
2019-03-18T04:46:23.334Z,98807.70
2019-03-18T04:48:49.897Z,98814.27
2019-03-18T04:51:16.471Z,98817.44
2019-03-18T04:53:43.050Z,98818.83
2019-03-18T04:56:09.620Z,98818.48
2019-03-18T04:58:36.196Z,98819.48
2019-03-18T05:01:02.771Z,98831.77
2019-03-18T05:03:29.363Z,98825.45
2019-03-18T05:05:55.936Z,98829.08
2019-03-18T05:08:22.533Z,98829.62
2019-03-18T05:10:49.095Z,98836.26
2019-03-18T05:13:15.699Z,98832.78
2019-03-18T05:15:42.270Z,98834.95
2019-03-18T05:18:08.889Z,98848.30
2019-03-18T05:20:35.484Z,98844.20
2019-03-18T05:23:02.142Z,98840.19
2019-03-18T05:25:28.767Z,98848.28
2019-03-18T05:27:55.399Z,98849.32
2019-03-18T05:30:22.064Z,98851.02
2019-03-18T05:32:48.665Z,98845.69
2019-03-18T05:35:15.248Z,98848.23
2019-03-18T05:37:41.852Z,98852.94
2019-03-18T05:40:08.423Z,98851.24
2019-03-18T05:42:34.988Z,98863.14
2019-03-18T05:45:01.556Z,98872.41
2019-03-18T05:47:38.562Z,98873.41
2019-03-18T05:49:56.426Z,98870.48
2019-03-18T05:52:22.995Z,98877.62
2019-03-18T05:54:49.568Z,98879.86
2019-03-18T05:57:16.230Z,98887.34
2019-03-18T05:59:42.807Z,98892.21
2019-03-18T06:02:09.375Z,98896.69
2019-03-18T06:04:35.942Z,98901.55
2019-03-18T06:07:02.519Z,98901.17
2019-03-18T06:09:29.108Z,98899.86
2019-03-18T06:11:55.660Z,98897.31
2019-03-18T06:14:22.334Z,98906.03
2019-03-18T06:16:48.913Z,98900.78
2019-03-18T06:19:15.480Z,98899.47
2019-03-18T06:21:42.128Z,98902.41
2019-03-18T06:24:08.709Z,98907.03
2019-03-18T06:26:35.286Z,98910.42
2019-03-18T06:29:01.869Z,98915.25
2019-03-18T06:31:28.448Z,98916.33
2019-03-18T06:33:55.020Z,98910.27
2019-03-18T06:36:21.591Z,98909.48
2019-03-18T06:38:48.210Z,98904.46
2019-03-18T06:41:14.772Z,98906.34
2019-03-18T06:43:41.383Z,98921.02
2019-03-18T06:46:07.950Z,98922.09
2019-03-18T06:48:34.567Z,98925.56
2019-03-18T06:51:01.148Z,98926.41
2019-03-18T06:53:27.752Z,98929.97
2019-03-18T06:55:54.322Z,98933.44
2019-03-18T06:58:20.925Z,98932.67
2019-03-18T07:00:47.490Z,98943.10
2019-03-18T07:03:14.101Z,98932.13
2019-03-18T07:05:40.681Z,98941.24
2019-03-18T07:08:07.255Z,98938.84
2019-03-18T07:10:33.822Z,98946.56
2019-03-18T07:13:00.516Z,98944.46
2019-03-18T07:15:27.090Z,98943.64
2019-03-18T07:17:53.664Z,98952.51
2019-03-18T07:20:20.273Z,98949.25
2019-03-18T07:22:46.888Z,98951.72
2019-03-18T07:25:13.477Z,98958.39
2019-03-18T07:27:40.056Z,98953.83
2019-03-18T07:30:06.661Z,98955.73
2019-03-18T07:32:33.233Z,98959.70
2019-03-18T07:34:59.886Z,98960.30
2019-03-18T07:37:26.487Z,98957.80
2019-03-18T07:39:53.075Z,98962.78
2019-03-18T07:42:19.656Z,98961.97
2019-03-18T07:44:46.263Z,98965.20
2019-03-18T07:47:12.841Z,98969.16
2019-03-18T07:49:39.466Z,98966.66
2019-03-18T07:52:06.048Z,98966.57
2019-03-18T07:54:33.310Z,98970.84
2019-03-18T07:57:00.087Z,98972.37
2019-03-18T07:59:26.695Z,98972.37
2019-03-18T08:01:53.270Z,98971.17
2019-03-18T08:04:19.873Z,98969.42
2019-03-18T08:06:46.527Z,98974.20
2019-03-18T08:09:13.117Z,98959.45
2019-03-18T08:11:39.692Z,98944.23
2019-03-18T08:14:06.303Z,98941.12
2019-03-18T08:16:32.965Z,98943.64
2019-03-18T08:18:59.579Z,98946.58
2019-03-18T08:21:27.246Z,98951.77
2019-03-18T08:23:53.848Z,98959.50
2019-03-18T08:26:20.418Z,98956.65
2019-03-18T08:28:47.015Z,98956.18
2019-03-18T08:31:13.584Z,98967.92
2019-03-18T08:33:40.153Z,98994.41
2019-03-18T08:36:06.731Z,99000.89
2019-03-18T08:38:33.310Z,98998.06
2019-03-18T08:40:59.885Z,99002.05
2019-03-18T08:43:26.458Z,98978.60
2019-03-18T08:45:53.038Z,98977.09
2019-03-18T08:48:19.610Z,98980.37
2019-03-18T08:50:46.194Z,98986.80
2019-03-18T08:53:12.767Z,99022.78
2019-03-18T08:55:39.347Z,99025.42
2019-03-18T08:58:05.918Z,99032.08
2019-03-18T09:00:32.486Z,99032.81
2019-03-18T09:02:59.061Z,99031.70
2019-03-18T09:05:25.641Z,99038.55
2019-03-18T09:07:52.216Z,99033.84
2019-03-18T09:10:18.794Z,99019.27
2019-03-18T09:12:45.372Z,99006.30
2019-03-18T09:15:11.944Z,99020.87
2019-03-18T09:17:38.526Z,99052.77
2019-03-18T09:20:05.122Z,99047.32
2019-03-18T09:22:31.699Z,99038.30
2019-03-18T09:24:58.308Z,99038.86
2019-03-18T09:27:24.881Z,99040.58
2019-03-18T09:29:51.497Z,99048.87
2019-03-18T09:32:18.054Z,99042.69
2019-03-18T09:34:44.649Z,99044.97
2019-03-18T09:37:11.222Z,99053.42
2019-03-18T09:39:37.821Z,99055.03
2019-03-18T09:42:04.470Z,99054.17
2019-03-18T09:44:31.085Z,99050.98
2019-03-18T09:46:57.648Z,99044.94
2019-03-18T09:49:24.257Z,99044.16
2019-03-18T09:51:50.829Z,99049.48
2019-03-18T09:54:17.434Z,99054.67
2019-03-18T09:56:44.005Z,99047.84
2019-03-18T09:59:10.600Z,99053.27
2019-03-18T10:01:37.182Z,99054.52
2019-03-18T10:04:03.765Z,99049.03
2019-03-18T10:06:30.342Z,99047.94
2019-03-18T10:08:56.915Z,99047.62
2019-03-18T10:11:23.484Z,99044.17
2019-03-18T10:13:50.067Z,99048.83
2019-03-18T10:16:16.646Z,99054.28
2019-03-18T10:18:43.221Z,99060.52
2019-03-18T10:21:09.804Z,99065.05
2019-03-18T10:23:36.387Z,99059.56
2019-03-18T10:26:02.961Z,99073.53
2019-03-18T10:28:29.587Z,99080.16
2019-03-18T10:30:56.160Z,99079.14
2019-03-18T10:33:22.748Z,99081.31
2019-03-18T10:35:49.325Z,99086.02
2019-03-18T10:38:15.908Z,99094.22
2019-03-18T10:40:42.499Z,99083.00
2019-03-18T10:43:09.077Z,99082.48
2019-03-18T10:45:35.694Z,99091.66
2019-03-18T10:48:02.269Z,99096.72
2019-03-18T10:50:28.876Z,99094.63
2019-03-18T10:52:55.466Z,99088.03
2019-03-18T10:55:22.055Z,99084.36
2019-03-18T10:57:48.625Z,99075.31
2019-03-18T11:00:15.272Z,99077.23
2019-03-18T11:02:44.694Z,99071.27
2019-03-18T11:05:10.233Z,99066.41
2019-03-18T11:07:36.914Z,99050.65
2019-03-18T11:10:03.534Z,99059.55
2019-03-18T11:12:30.101Z,99065.83
2019-03-18T11:14:56.796Z,99076.17
2019-03-18T11:17:23.378Z,99068.34
2019-03-18T11:19:58.227Z,99067.18
2019-03-18T11:22:18.253Z,99058.38
2019-03-18T11:24:44.844Z,99052.95
2019-03-18T11:27:11.410Z,99069.91
2019-03-18T11:29:37.983Z,99066.12
2019-03-18T11:32:04.555Z,99057.23
2019-03-18T11:34:31.137Z,99068.14
2019-03-18T11:36:57.728Z,99070.87
2019-03-18T11:39:24.296Z,99073.05
2019-03-18T11:41:50.866Z,99065.95
2019-03-18T11:44:17.459Z,99063.16
2019-03-18T11:46:44.070Z,99061.16
2019-03-18T11:49:10.639Z,99066.76
2019-03-18T11:51:37.218Z,99065.44
2019-03-18T11:54:03.787Z,99067.12
2019-03-18T11:56:30.363Z,99070.84
2019-03-18T11:58:56.935Z,99068.53
2019-03-18T12:01:23.551Z,99069.58
2019-03-18T12:03:50.132Z,99058.63
2019-03-18T12:06:16.724Z,99055.79
2019-03-18T12:08:43.301Z,99056.81
2019-03-18T12:11:09.966Z,99056.85
2019-03-18T12:13:36.547Z,99061.27
2019-03-18T12:16:03.169Z,99062.38
2019-03-18T12:18:29.741Z,99060.83
2019-03-18T12:20:56.347Z,99063.37
2019-03-18T12:23:22.938Z,99072.34
2019-03-18T12:25:49.548Z,99070.98
2019-03-18T12:28:16.116Z,99079.04
2019-03-18T12:30:42.725Z,99090.91
2019-03-18T12:33:09.300Z,99083.88
2019-03-18T12:35:35.892Z,99076.86
2019-03-18T12:38:02.462Z,99086.02
2019-03-18T12:40:29.032Z,99077.66
2019-03-18T12:42:55.611Z,99082.56
2019-03-18T12:45:22.319Z,99083.42
2019-03-18T12:47:48.899Z,99094.18
2019-03-18T12:50:15.464Z,99097.80
2019-03-18T12:52:42.052Z,99112.03
2019-03-18T12:55:08.619Z,99112.53
2019-03-18T12:57:35.199Z,99116.70
2019-03-18T13:00:01.774Z,99115.00
2019-03-18T13:02:28.341Z,99109.27
2019-03-18T13:04:54.918Z,99108.61
2019-03-18T13:07:21.535Z,99115.77
2019-03-18T13:09:48.114Z,99116.61
2019-03-18T13:12:14.718Z,99117.08
2019-03-18T13:14:41.292Z,99116.80
2019-03-18T13:17:07.904Z,99112.36
2019-03-18T13:19:34.540Z,99113.89
2019-03-18T13:22:01.154Z,99115.48
2019-03-18T13:24:27.787Z,99112.46
2019-03-18T13:26:54.417Z,99115.57
2019-03-18T13:29:21.002Z,99115.39
2019-03-18T13:31:47.611Z,99116.05
2019-03-18T13:34:14.186Z,99118.39
2019-03-18T13:36:40.777Z,99119.14
2019-03-18T13:39:07.362Z,99111.05
2019-03-18T13:41:33.953Z,99122.73
2019-03-18T13:44:00.530Z,99115.77
2019-03-18T13:46:27.166Z,99109.55
2019-03-18T13:48:53.724Z,99116.52
2019-03-18T13:51:21.378Z,99107.29
2019-03-18T13:53:48.117Z,99107.11
2019-03-18T13:56:14.695Z,99108.12
2019-03-18T13:58:41.354Z,99117.55
2019-03-18T14:01:07.972Z,99116.98
2019-03-18T14:03:34.540Z,99114.72
2019-03-18T14:06:01.117Z,99101.16
2019-03-18T14:08:27.683Z,99099.27
2019-03-18T14:10:54.252Z,99108.41
2019-03-18T14:13:20.842Z,99112.37
2019-03-18T14:15:47.401Z,99106.05
2019-03-18T14:18:13.991Z,99101.99
2019-03-18T14:20:40.564Z,99099.38
2019-03-18T14:23:07.211Z,99110.67
2019-03-18T14:25:33.795Z,99099.64
2019-03-18T14:28:00.401Z,99102.77
2019-03-18T14:30:27.023Z,99107.17
2019-03-18T14:32:53.603Z,99105.78
2019-03-18T14:35:21.545Z,99108.59
2019-03-18T14:37:48.642Z,99107.07
2019-03-18T14:40:15.216Z,99101.13
2019-03-18T14:42:41.809Z,99099.17
2019-03-18T14:45:08.379Z,99097.95
2019-03-18T14:47:35.020Z,99089.57
2019-03-18T14:50:01.648Z,99094.28
2019-03-18T14:52:28.313Z,99084.00
2019-03-18T14:54:54.874Z,99079.69
2019-03-18T14:57:21.495Z,99079.80
2019-03-18T14:59:48.098Z,99079.22
2019-03-18T15:02:14.759Z,99081.87
2019-03-18T15:04:41.342Z,99090.91
2019-03-18T15:07:07.968Z,99096.84
2019-03-18T15:09:34.559Z,99106.54
2019-03-18T15:12:01.162Z,99111.05
2019-03-18T15:14:27.731Z,99106.63
2019-03-18T15:16:54.347Z,99106.63
2019-03-18T15:19:20.931Z,99110.88
2019-03-18T15:21:57.997Z,99115.38
2019-03-18T15:24:17.139Z,99124.04
2019-03-18T15:26:44.123Z,99132.15
2019-03-18T15:29:10.693Z,99124.70
2019-03-18T15:31:37.297Z,99125.73
2019-03-18T15:34:03.872Z,99121.78
2019-03-18T15:36:30.461Z,99129.60
2019-03-18T15:38:57.029Z,99127.34
2019-03-18T15:41:23.605Z,99123.30
2019-03-18T15:43:50.176Z,99121.89
2019-03-18T15:46:16.750Z,99132.44
2019-03-18T15:48:43.333Z,99135.17
2019-03-18T15:51:09.926Z,99131.77
2019-03-18T15:53:36.498Z,99133.27
2019-03-18T15:56:03.074Z,99143.91
2019-03-18T15:58:29.654Z,99148.33
2019-03-18T16:00:56.229Z,99151.27
2019-03-18T16:03:22.883Z,99159.92
2019-03-18T16:05:49.470Z,99171.30
2019-03-18T16:08:16.346Z,99168.87
2019-03-18T16:10:42.949Z,99164.53
2019-03-18T16:13:09.590Z,99171.13
2019-03-18T16:15:36.174Z,99173.29
2019-03-18T16:18:02.753Z,99173.29
2019-03-18T16:20:29.434Z,99175.92
2019-03-18T16:22:56.009Z,99176.39
2019-03-18T16:25:22.581Z,99179.41
2019-03-18T16:27:49.156Z,99188.17
2019-03-18T16:30:15.740Z,99188.81
2019-03-18T16:32:42.361Z,99179.77
2019-03-18T16:35:08.932Z,99176.45
2019-03-18T16:37:35.544Z,99188.70
2019-03-18T16:40:02.118Z,99201.41
2019-03-18T16:42:28.840Z,99211.19
2019-03-18T16:44:55.413Z,99215.14
2019-03-18T16:47:22.032Z,99217.22
2019-03-18T16:49:48.624Z,99234.82
2019-03-18T16:52:15.229Z,99230.87
2019-03-18T16:54:41.814Z,99239.63
2019-03-18T16:57:08.391Z,99241.33
2019-03-18T16:59:34.971Z,99238.19
2019-03-18T17:02:01.601Z,99234.23
2019-03-18T17:04:28.211Z,99229.26
2019-03-18T17:06:54.788Z,99236.23
2019-03-18T17:09:21.366Z,99240.95
2019-03-18T17:11:47.945Z,99246.22
2019-03-18T17:14:14.526Z,99242.64
2019-03-18T17:16:41.105Z,99248.39
2019-03-18T17:19:07.693Z,99251.02
2019-03-18T17:21:34.371Z,99262.50
2019-03-18T17:24:00.943Z,99261.27
2019-03-18T17:26:28.783Z,99262.30
2019-03-18T17:28:55.357Z,99270.78
2019-03-18T17:31:21.961Z,99265.59
2019-03-18T17:33:48.538Z,99267.85
2019-03-18T17:36:15.120Z,99267.09
2019-03-18T17:38:41.712Z,99271.59
2019-03-18T17:41:09.393Z,99279.03
2019-03-18T17:43:36.147Z,99282.52
2019-03-18T17:46:02.805Z,99304.53
2019-03-18T17:48:29.380Z,99296.50
2019-03-18T17:50:55.969Z,99301.67
2019-03-18T17:53:22.536Z,99286.54
2019-03-18T17:55:49.120Z,99286.88
2019-03-18T17:58:15.696Z,99304.20
2019-03-18T18:00:42.277Z,99318.00
2019-03-18T18:03:08.855Z,99320.71
2019-03-18T18:05:35.431Z,99331.80
2019-03-18T18:08:02.005Z,99331.49
2019-03-18T18:10:28.580Z,99332.13
2019-03-18T18:12:55.172Z,99337.12
2019-03-18T18:15:21.750Z,99328.52
2019-03-18T18:17:48.320Z,99337.05
2019-03-18T18:20:14.947Z,99339.77
2019-03-18T18:22:41.526Z,99348.59
2019-03-18T18:25:08.115Z,99352.16
2019-03-18T18:27:34.703Z,99344.26
2019-03-18T18:30:01.328Z,99341.62
2019-03-18T18:32:27.896Z,99340.31
2019-03-18T18:34:55.910Z,99336.83
2019-03-18T18:37:22.490Z,99343.48
2019-03-18T18:39:49.101Z,99350.08
2019-03-18T18:42:15.712Z,99352.78
2019-03-18T18:44:42.323Z,99349.88
2019-03-18T18:47:08.893Z,99354.38
2019-03-18T18:49:35.535Z,99363.36
2019-03-18T18:52:02.114Z,99356.93
2019-03-18T18:54:28.708Z,99360.66
2019-03-18T18:56:55.288Z,99362.16
2019-03-18T18:59:21.875Z,99366.64
2019-03-18T19:01:48.464Z,99368.20
2019-03-18T19:04:15.079Z,99370.98
2019-03-18T19:06:41.655Z,99367.19
2019-03-18T19:09:08.334Z,99367.84
2019-03-18T19:11:34.974Z,99371.39
2019-03-18T19:14:01.575Z,99375.89
2019-03-18T19:16:28.147Z,99378.28
2019-03-18T19:18:54.760Z,99385.55
2019-03-18T19:21:21.376Z,99386.73
2019-03-18T19:23:47.971Z,99390.13
2019-03-18T19:26:14.545Z,99383.88
2019-03-18T19:28:41.223Z,99396.02
2019-03-18T19:31:07.798Z,99412.66
2019-03-18T19:33:34.447Z,99408.61
2019-03-18T19:36:01.025Z,99412.84
2019-03-18T19:38:27.642Z,99413.95
2019-03-18T19:40:54.215Z,99414.94
2019-03-18T19:43:20.788Z,99418.89
2019-03-18T19:45:47.479Z,99422.91
2019-03-18T19:48:14.062Z,99415.02
2019-03-18T19:50:40.640Z,99414.23
2019-03-18T19:53:07.244Z,99410.14
2019-03-18T19:55:33.809Z,99409.30
2019-03-18T19:58:00.457Z,99416.33
2019-03-18T20:00:27.084Z,99430.00
2019-03-18T20:02:53.678Z,99431.46
2019-03-18T20:05:20.273Z,99434.63
2019-03-18T20:07:46.850Z,99432.62
2019-03-18T20:10:13.476Z,99439.66
2019-03-18T20:12:40.099Z,99445.06
2019-03-18T20:15:06.714Z,99452.16
2019-03-18T20:17:33.333Z,99449.60
2019-03-18T20:20:00.190Z,99448.43
2019-03-18T20:22:27.050Z,99444.55
2019-03-18T20:24:53.637Z,99449.48
2019-03-18T20:27:20.897Z,99457.54
2019-03-18T20:29:47.530Z,99457.22
2019-03-18T20:32:14.105Z,99458.28
2019-03-18T20:34:40.743Z,99464.52
2019-03-18T20:37:07.322Z,99461.64
2019-03-18T20:39:33.961Z,99473.16
2019-03-18T20:42:00.533Z,99467.48
2019-03-18T20:44:27.131Z,99471.10
2019-03-18T20:46:53.707Z,99472.48
2019-03-18T20:49:20.327Z,99473.01
2019-03-18T20:51:47.279Z,99475.70
2019-03-18T20:54:13.850Z,99471.44
2019-03-18T20:56:40.433Z,99475.90
2019-03-18T20:59:07.006Z,99473.84
2019-03-18T21:01:33.582Z,99470.81
2019-03-18T21:04:00.160Z,99476.53
2019-03-18T21:06:26.745Z,99476.06
2019-03-18T21:08:53.332Z,99480.92
2019-03-18T21:11:19.909Z,99480.92
2019-03-18T21:13:56.760Z,99490.12
2019-03-18T21:16:14.782Z,99496.29
2019-03-18T21:18:43.903Z,99490.64
2019-03-18T21:21:09.655Z,99489.86
2019-03-18T21:23:36.271Z,99499.05
2019-03-18T21:26:02.855Z,99503.52
2019-03-18T21:28:40.498Z,99503.58
2019-03-18T21:30:57.736Z,99500.63
2019-03-18T21:33:24.314Z,99505.12
2019-03-18T21:35:53.079Z,99515.63
2019-03-18T21:38:19.463Z,99514.83
2019-03-18T21:40:46.032Z,99521.00
2019-03-18T21:43:12.606Z,99525.92
2019-03-18T21:45:39.180Z,99527.76
2019-03-18T21:48:05.756Z,99530.91
2019-03-18T21:50:32.337Z,99531.09
2019-03-18T21:52:58.914Z,99531.65
2019-03-18T21:55:25.492Z,99536.50
2019-03-18T21:57:52.060Z,99529.55
2019-03-18T22:00:18.633Z,99530.98
2019-03-18T22:02:45.214Z,99523.63
2019-03-18T22:05:11.829Z,99538.92
2019-03-18T22:07:38.393Z,99538.59
2019-03-18T22:10:05.008Z,99534.38
2019-03-18T22:12:31.680Z,99530.27
2019-03-18T22:14:58.273Z,99533.87
2019-03-18T22:17:24.890Z,99534.91
2019-03-18T22:19:51.501Z,99534.11
2019-03-18T22:22:18.079Z,99538.72
2019-03-18T22:24:45.711Z,99548.42
2019-03-18T22:27:12.507Z,99552.02
2019-03-18T22:29:39.085Z,99553.58
2019-03-18T22:32:05.664Z,99554.19
2019-03-18T22:34:32.238Z,99552.94
2019-03-18T22:36:58.875Z,99560.52
2019-03-18T22:39:25.459Z,99561.50
2019-03-18T22:41:52.039Z,99554.66
2019-03-18T22:44:18.618Z,99559.26
2019-03-18T22:46:45.214Z,99561.14
2019-03-18T22:49:11.836Z,99564.84
2019-03-18T22:51:38.409Z,99558.95
2019-03-18T22:54:04.989Z,99561.69
2019-03-18T22:56:31.576Z,99559.64
2019-03-18T22:58:58.151Z,99561.13
2019-03-18T23:01:24.851Z,99563.09
2019-03-18T23:03:51.416Z,99563.72
2019-03-18T23:06:18.031Z,99564.34
2019-03-18T23:08:44.595Z,99564.05
2019-03-18T23:11:11.189Z,99572.52
2019-03-18T23:13:37.769Z,99572.68
2019-03-18T23:16:04.362Z,99574.15
2019-03-18T23:18:31.003Z,99575.20
2019-03-18T23:20:57.611Z,99577.02
2019-03-18T23:23:24.182Z,99582.42
2019-03-18T23:25:50.857Z,99578.60
2019-03-18T23:28:17.435Z,99574.37
2019-03-18T23:30:44.026Z,99578.05
2019-03-18T23:33:10.610Z,99578.15
2019-03-18T23:35:37.216Z,99579.56
2019-03-18T23:38:03.783Z,99589.69
2019-03-18T23:40:30.377Z,99583.70
2019-03-18T23:42:56.953Z,99580.36
2019-03-18T23:45:23.550Z,99582.69
2019-03-18T23:47:50.119Z,99582.34
2019-03-18T23:50:16.742Z,99594.27
2019-03-18T23:52:43.326Z,99598.84
2019-03-18T23:55:18.174Z,99603.72
2019-03-18T23:57:38.215Z,99604.22
